sensor_id;sensor_type;location;lat;lon;timestamp;pressure;altitude;pressure_sealevel;temperature;humidity
84578;BME280;74803;44.756;19.218;2024-02-23T00:01:56;99638.00;;;20.98;26.44
84578;BME280;74803;44.756;19.218;2024-02-23T00:04:21;99632.13;;;20.91;26.63
84578;BME280;74803;44.756;19.218;2024-02-23T00:06:46;99641.47;;;20.77;27.04
84578;BME280;74803;44.756;19.218;2024-02-23T00:09:12;99639.03;;;20.97;26.83
84578;BME280;74803;44.756;19.218;2024-02-23T00:11:40;99632.34;;;19.96;28.33
84578;BME280;74803;44.756;19.218;2024-02-23T00:14:10;99623.94;;;19.99;28.40
84578;BME280;74803;44.756;19.218;2024-02-23T00:16:39;99632.06;;;20.86;27.70
84578;BME280;74803;44.756;19.218;2024-02-23T00:19:05;99628.38;;;20.87;27.13
84578;BME280;74803;44.756;19.218;2024-02-23T00:21:31;99616.78;;;19.77;28.89
84578;BME280;74803;44.756;19.218;2024-02-23T00:23:56;99625.63;;;20.05;28.22
84578;BME280;74803;44.756;19.218;2024-02-23T00:26:22;99625.56;;;20.16;28.85
84578;BME280;74803;44.756;19.218;2024-02-23T00:28:47;99619.16;;;19.96;28.65
84578;BME280;74803;44.756;19.218;2024-02-23T00:31:13;99621.78;;;19.62;29.15
84578;BME280;74803;44.756;19.218;2024-02-23T00:33:39;99612.13;;;19.84;28.73
84578;BME280;74803;44.756;19.218;2024-02-23T00:36:07;99611.72;;;20.09;28.79
84578;BME280;74803;44.756;19.218;2024-02-23T00:38:32;99621.41;;;20.37;28.42
84578;BME280;74803;44.756;19.218;2024-02-23T00:40:58;99607.66;;;19.68;28.63
84578;BME280;74803;44.756;19.218;2024-02-23T00:43:24;99620.97;;;19.62;30.06
84578;BME280;74803;44.756;19.218;2024-02-23T00:45:49;99623.53;;;19.28;30.40
84578;BME280;74803;44.756;19.218;2024-02-23T00:48:15;99624.94;;;18.68;31.08
84578;BME280;74803;44.756;19.218;2024-02-23T00:50:40;99612.44;;;19.15;31.00
84578;BME280;74803;44.756;19.218;2024-02-23T00:53:06;99617.47;;;19.28;30.50
84578;BME280;74803;44.756;19.218;2024-02-23T00:55:31;99617.41;;;18.25;31.72
84578;BME280;74803;44.756;19.218;2024-02-23T00:57:56;99619.59;;;18.39;31.85
84578;BME280;74803;44.756;19.218;2024-02-23T01:00:22;99613.50;;;18.74;30.88
84578;BME280;74803;44.756;19.218;2024-02-23T01:02:48;99618.88;;;19.47;30.01
84578;BME280;74803;44.756;19.218;2024-02-23T01:05:14;99618.88;;;18.67;31.19
84578;BME280;74803;44.756;19.218;2024-02-23T01:07:39;99624.41;;;19.34;29.77
84578;BME280;74803;44.756;19.218;2024-02-23T01:10:05;99622.25;;;20.43;28.45
84578;BME280;74803;44.756;19.218;2024-02-23T01:12:30;99623.97;;;21.14;27.08
84578;BME280;74803;44.756;19.218;2024-02-23T01:14:56;99627.00;;;20.41;27.86
84578;BME280;74803;44.756;19.218;2024-02-23T01:17:21;99625.38;;;20.40;27.81
84578;BME280;74803;44.756;19.218;2024-02-23T01:19:47;99624.00;;;20.54;27.65
84578;BME280;74803;44.756;19.218;2024-02-23T01:22:12;99630.50;;;20.68;27.23
84578;BME280;74803;44.756;19.218;2024-02-23T01:24:38;99621.16;;;19.89;28.59
84578;BME280;74803;44.756;19.218;2024-02-23T01:27:03;99620.38;;;19.88;28.68
84578;BME280;74803;44.756;19.218;2024-02-23T01:29:29;99621.47;;;20.42;27.94
84578;BME280;74803;44.756;19.218;2024-02-23T01:31:54;99605.97;;;19.96;28.42
84578;BME280;74803;44.756;19.218;2024-02-23T01:34:20;99616.88;;;20.54;27.69
84578;BME280;74803;44.756;19.218;2024-02-23T01:36:46;99598.81;;;21.33;26.54
84578;BME280;74803;44.756;19.218;2024-02-23T01:39:11;99605.25;;;20.00;28.25
84578;BME280;74803;44.756;19.218;2024-02-23T01:41:37;99597.66;;;21.02;26.92
84578;BME280;74803;44.756;19.218;2024-02-23T01:44:03;99598.34;;;22.00;25.78
84578;BME280;74803;44.756;19.218;2024-02-23T01:46:28;99593.66;;;22.12;25.64
84578;BME280;74803;44.756;19.218;2024-02-23T01:48:54;99595.00;;;22.15;25.83
84578;BME280;74803;44.756;19.218;2024-02-23T01:51:19;99591.63;;;22.24;25.38
84578;BME280;74803;44.756;19.218;2024-02-23T01:53:45;99587.53;;;22.07;25.92
84578;BME280;74803;44.756;19.218;2024-02-23T01:56:11;99583.81;;;20.90;27.36
84578;BME280;74803;44.756;19.218;2024-02-23T01:58:39;99586.56;;;21.27;26.78
84578;BME280;74803;44.756;19.218;2024-02-23T02:01:05;99573.94;;;21.07;26.98
84578;BME280;74803;44.756;19.218;2024-02-23T02:03:31;99577.97;;;22.01;25.99
84578;BME280;74803;44.756;19.218;2024-02-23T02:05:57;99577.03;;;21.21;26.85
84578;BME280;74803;44.756;19.218;2024-02-23T02:08:26;99577.25;;;22.15;25.72
84578;BME280;74803;44.756;19.218;2024-02-23T02:10:51;99576.09;;;22.43;25.20
84578;BME280;74803;44.756;19.218;2024-02-23T02:13:17;99565.03;;;22.04;25.97
84578;BME280;74803;44.756;19.218;2024-02-23T02:15:42;99565.97;;;22.25;25.54
84578;BME280;74803;44.756;19.218;2024-02-23T02:18:09;99569.03;;;22.12;25.60
84578;BME280;74803;44.756;19.218;2024-02-23T02:20:37;99560.06;;;21.17;26.90
84578;BME280;74803;44.756;19.218;2024-02-23T02:23:06;99557.53;;;22.33;25.53
84578;BME280;74803;44.756;19.218;2024-02-23T02:25:32;99561.38;;;22.62;25.29
84578;BME280;74803;44.756;19.218;2024-02-23T02:27:58;99563.44;;;21.71;26.05
84578;BME280;74803;44.756;19.218;2024-02-23T02:30:23;99559.09;;;21.55;26.43
84578;BME280;74803;44.756;19.218;2024-02-23T02:32:48;99561.88;;;20.68;27.59
84578;BME280;74803;44.756;19.218;2024-02-23T02:35:15;99561.69;;;21.50;26.63
84578;BME280;74803;44.756;19.218;2024-02-23T02:37:40;99551.25;;;20.63;27.83
84578;BME280;74803;44.756;19.218;2024-02-23T02:40:06;99556.41;;;20.96;27.49
84578;BME280;74803;44.756;19.218;2024-02-23T02:42:32;99552.31;;;21.10;27.40
84578;BME280;74803;44.756;19.218;2024-02-23T02:44:58;99546.72;;;21.29;27.33
84578;BME280;74803;44.756;19.218;2024-02-23T02:47:23;99544.59;;;21.26;26.96
84578;BME280;74803;44.756;19.218;2024-02-23T02:49:49;99552.81;;;21.07;27.40
84578;BME280;74803;44.756;19.218;2024-02-23T02:52:15;99552.06;;;20.63;28.00
84578;BME280;74803;44.756;19.218;2024-02-23T02:54:40;99549.69;;;20.40;28.59
84578;BME280;74803;44.756;19.218;2024-02-23T02:57:05;99554.19;;;20.06;28.88
84578;BME280;74803;44.756;19.218;2024-02-23T02:59:34;99550.31;;;21.18;27.49
84578;BME280;74803;44.756;19.218;2024-02-23T03:02:00;99546.38;;;21.20;27.64
84578;BME280;74803;44.756;19.218;2024-02-23T03:04:26;99549.84;;;20.77;28.16
84578;BME280;74803;44.756;19.218;2024-02-23T03:06:51;99541.69;;;21.59;26.98
84578;BME280;74803;44.756;19.218;2024-02-23T03:09:17;99540.81;;;21.22;27.58
84578;BME280;74803;44.756;19.218;2024-02-23T03:11:42;99537.75;;;21.67;27.19
84578;BME280;74803;44.756;19.218;2024-02-23T03:14:08;99546.00;;;21.38;27.40
84578;BME280;74803;44.756;19.218;2024-02-23T03:16:35;99547.69;;;21.49;27.47
84578;BME280;74803;44.756;19.218;2024-02-23T03:19:02;99543.16;;;21.45;27.25
84578;BME280;74803;44.756;19.218;2024-02-23T03:21:28;99545.69;;;21.99;26.58
84578;BME280;74803;44.756;19.218;2024-02-23T03:23:53;99539.53;;;21.24;27.31
84578;BME280;74803;44.756;19.218;2024-02-23T03:26:19;99541.56;;;21.81;26.71
84578;BME280;74803;44.756;19.218;2024-02-23T03:28:44;99542.16;;;21.88;26.58
84578;BME280;74803;44.756;19.218;2024-02-23T03:31:10;99541.03;;;22.21;26.31
84578;BME280;74803;44.756;19.218;2024-02-23T03:33:35;99538.03;;;22.49;25.63
84578;BME280;74803;44.756;19.218;2024-02-23T03:36:00;99537.63;;;21.83;26.83
84578;BME280;74803;44.756;19.218;2024-02-23T03:38:26;99540.47;;;22.09;26.39
84578;BME280;74803;44.756;19.218;2024-02-23T03:40:51;99532.16;;;23.75;26.47
84578;BME280;74803;44.756;19.218;2024-02-23T03:43:17;99534.69;;;21.43;27.42
84578;BME280;74803;44.756;19.218;2024-02-23T03:45:42;99528.19;;;21.56;27.25
84578;BME280;74803;44.756;19.218;2024-02-23T03:48:08;99530.50;;;22.26;25.61
84578;BME280;74803;44.756;19.218;2024-02-23T03:50:33;99539.22;;;24.94;23.87
84578;BME280;74803;44.756;19.218;2024-02-23T03:52:59;99536.78;;;25.37;23.08
84578;BME280;74803;44.756;19.218;2024-02-23T03:55:24;99538.28;;;26.58;21.86
84578;BME280;74803;44.756;19.218;2024-02-23T03:57:50;99537.19;;;23.77;23.86
84578;BME280;74803;44.756;19.218;2024-02-23T04:00:17;99539.25;;;21.89;27.31
84578;BME280;74803;44.756;19.218;2024-02-23T04:02:42;99529.84;;;20.81;28.68
84578;BME280;74803;44.756;19.218;2024-02-23T04:05:08;99530.06;;;21.01;28.90
84578;BME280;74803;44.756;19.218;2024-02-23T04:07:33;99523.78;;;21.34;28.36
84578;BME280;74803;44.756;19.218;2024-02-23T04:09:58;99520.63;;;21.69;28.05
84578;BME280;74803;44.756;19.218;2024-02-23T04:12:24;99511.81;;;21.00;28.90
84578;BME280;74803;44.756;19.218;2024-02-23T04:14:49;99517.94;;;22.06;27.41
84578;BME280;74803;44.756;19.218;2024-02-23T04:17:15;99520.94;;;21.78;28.13
84578;BME280;74803;44.756;19.218;2024-02-23T04:19:41;99517.03;;;21.48;28.50
84578;BME280;74803;44.756;19.218;2024-02-23T04:22:08;99524.75;;;20.53;30.07
84578;BME280;74803;44.756;19.218;2024-02-23T04:24:38;99510.81;;;21.33;28.75
84578;BME280;74803;44.756;19.218;2024-02-23T04:27:05;99520.44;;;20.90;29.19
84578;BME280;74803;44.756;19.218;2024-02-23T04:29:30;99536.88;;;22.30;27.53
84578;BME280;74803;44.756;19.218;2024-02-23T04:31:57;99540.44;;;21.72;28.25
84578;BME280;74803;44.756;19.218;2024-02-23T04:34:23;99538.13;;;21.17;29.04
84578;BME280;74803;44.756;19.218;2024-02-23T04:36:48;99531.34;;;20.72;29.84
84578;BME280;74803;44.756;19.218;2024-02-23T04:39:14;99537.88;;;20.91;29.57
84578;BME280;74803;44.756;19.218;2024-02-23T04:41:39;99528.41;;;21.22;29.32
84578;BME280;74803;44.756;19.218;2024-02-23T04:44:05;99528.81;;;21.36;29.16
84578;BME280;74803;44.756;19.218;2024-02-23T04:46:30;99531.28;;;21.16;29.65
84578;BME280;74803;44.756;19.218;2024-02-23T04:48:56;99522.03;;;21.45;29.36
84578;BME280;74803;44.756;19.218;2024-02-23T04:51:21;99519.19;;;21.25;29.62
84578;BME280;74803;44.756;19.218;2024-02-23T04:53:48;99523.59;;;21.83;29.00
84578;BME280;74803;44.756;19.218;2024-02-23T04:56:14;99520.28;;;21.29;29.71
84578;BME280;74803;44.756;19.218;2024-02-23T04:58:39;99519.91;;;21.47;29.40
84578;BME280;74803;44.756;19.218;2024-02-23T05:01:06;99512.84;;;21.58;29.38
84578;BME280;74803;44.756;19.218;2024-02-23T05:03:32;99514.44;;;21.00;29.96
84578;BME280;74803;44.756;19.218;2024-02-23T05:05:57;99512.03;;;21.89;29.70
84578;BME280;74803;44.756;19.218;2024-02-23T05:08:23;99500.38;;;21.16;30.08
84578;BME280;74803;44.756;19.218;2024-02-23T05:10:49;99510.03;;;22.11;28.78
84578;BME280;74803;44.756;19.218;2024-02-23T05:13:16;99509.44;;;21.94;28.82
84578;BME280;74803;44.756;19.218;2024-02-23T05:15:41;99501.94;;;21.44;30.12
84578;BME280;74803;44.756;19.218;2024-02-23T05:18:07;99504.75;;;21.05;30.80
84578;BME280;74803;44.756;19.218;2024-02-23T05:20:32;99502.69;;;21.39;30.67
84578;BME280;74803;44.756;19.218;2024-02-23T05:22:58;99500.91;;;21.92;29.75
84578;BME280;74803;44.756;19.218;2024-02-23T05:25:23;99502.06;;;21.64;30.37
84578;BME280;74803;44.756;19.218;2024-02-23T05:27:50;99494.03;;;20.90;31.48
84578;BME280;74803;44.756;19.218;2024-02-23T05:30:16;99505.72;;;20.99;31.29
84578;BME280;74803;44.756;19.218;2024-02-23T05:32:41;99505.13;;;20.92;32.01
84578;BME280;74803;44.756;19.218;2024-02-23T05:35:07;99504.66;;;20.30;32.90
84578;BME280;74803;44.756;19.218;2024-02-23T05:37:34;99501.78;;;19.93;33.58
84578;BME280;74803;44.756;19.218;2024-02-23T05:40:00;99509.88;;;19.87;33.96
84578;BME280;74803;44.756;19.218;2024-02-23T05:42:27;99499.31;;;19.48;34.93
84578;BME280;74803;44.756;19.218;2024-02-23T05:44:52;99498.84;;;19.39;35.23
84578;BME280;74803;44.756;19.218;2024-02-23T05:47:18;99493.78;;;20.05;34.16
84578;BME280;74803;44.756;19.218;2024-02-23T05:49:43;99500.41;;;20.46;33.44
84578;BME280;74803;44.756;19.218;2024-02-23T05:52:09;99499.88;;;20.27;33.87
84578;BME280;74803;44.756;19.218;2024-02-23T05:54:35;99502.47;;;20.92;32.93
84578;BME280;74803;44.756;19.218;2024-02-23T05:57:00;99509.25;;;19.79;34.83
84578;BME280;74803;44.756;19.218;2024-02-23T05:59:26;99526.00;;;20.28;34.23
84578;BME280;74803;44.756;19.218;2024-02-23T06:01:52;99524.97;;;19.91;35.10
84578;BME280;74803;44.756;19.218;2024-02-23T06:04:22;99529.84;;;20.59;33.98
84578;BME280;74803;44.756;19.218;2024-02-23T06:06:47;99529.72;;;20.27;34.42
84578;BME280;74803;44.756;19.218;2024-02-23T06:09:13;99534.25;;;23.17;29.86
84578;BME280;74803;44.756;19.218;2024-02-23T06:11:38;99542.06;;;21.41;32.18
84578;BME280;74803;44.756;19.218;2024-02-23T06:14:04;99550.84;;;20.11;34.24
84578;BME280;74803;44.756;19.218;2024-02-23T06:16:29;99555.63;;;20.74;33.34
84578;BME280;74803;44.756;19.218;2024-02-23T06:18:54;99559.44;;;20.40;33.87
84578;BME280;74803;44.756;19.218;2024-02-23T06:21:24;99553.47;;;20.11;34.46
84578;BME280;74803;44.756;19.218;2024-02-23T06:24:02;99549.88;;;22.36;31.74
84578;BME280;74803;44.756;19.218;2024-02-23T06:26:59;99554.47;;;21.72;32.10
84578;BME280;74803;44.756;19.218;2024-02-23T06:29:29;99549.53;;;21.49;32.06
84578;BME280;74803;44.756;19.218;2024-02-23T06:32:14;99556.88;;;21.15;32.43
84578;BME280;74803;44.756;19.218;2024-02-23T06:34:47;99556.16;;;21.51;31.95
84578;BME280;74803;44.756;19.218;2024-02-23T06:37:12;99561.81;;;22.39;30.26
84578;BME280;74803;44.756;19.218;2024-02-23T06:39:42;99561.88;;;22.54;29.90
84578;BME280;74803;44.756;19.218;2024-02-23T06:42:29;99559.22;;;22.54;29.72
84578;BME280;74803;44.756;19.218;2024-02-23T06:45:02;99556.63;;;22.64;29.44
84578;BME280;74803;44.756;19.218;2024-02-23T06:47:41;99562.78;;;21.91;30.09
84578;BME280;74803;44.756;19.218;2024-02-23T06:53:38;99558.97;;;22.61;29.52
84578;BME280;74803;44.756;19.218;2024-02-23T06:56:15;99557.69;;;21.79;30.82
84578;BME280;74803;44.756;19.218;2024-02-23T06:59:05;99556.19;;;21.88;30.87
84578;BME280;74803;44.756;19.218;2024-02-23T07:08:25;99542.56;;;22.07;29.98
84578;BME280;74803;44.756;19.218;2024-02-23T07:14:47;99555.72;;;24.27;28.12
84578;BME280;74803;44.756;19.218;2024-02-23T07:17:17;99557.19;;;25.80;25.93
84578;BME280;74803;44.756;19.218;2024-02-23T07:20:25;99552.22;;;22.95;28.88
84578;BME280;74803;44.756;19.218;2024-02-23T07:23:06;99552.81;;;22.45;29.51
84578;BME280;74803;44.756;19.218;2024-02-23T07:26:06;99547.69;;;22.23;30.56
84578;BME280;74803;44.756;19.218;2024-02-23T07:32:40;99554.44;;;22.51;29.91
84578;BME280;74803;44.756;19.218;2024-02-23T07:35:54;99553.63;;;23.33;28.40
84578;BME280;74803;44.756;19.218;2024-02-23T07:38:20;99554.41;;;23.34;28.12
84578;BME280;74803;44.756;19.218;2024-02-23T07:40:46;99555.47;;;23.38;27.99
84578;BME280;74803;44.756;19.218;2024-02-23T07:43:11;99560.13;;;22.85;28.79
84578;BME280;74803;44.756;19.218;2024-02-23T07:45:38;99555.69;;;23.01;28.17
84578;BME280;74803;44.756;19.218;2024-02-23T07:48:03;99547.03;;;23.46;27.58
84578;BME280;74803;44.756;19.218;2024-02-23T07:50:39;99547.03;;;23.61;27.65
84578;BME280;74803;44.756;19.218;2024-02-23T07:53:04;99541.72;;;23.66;27.67
84578;BME280;74803;44.756;19.218;2024-02-23T07:55:30;99548.63;;;23.72;27.43
84578;BME280;74803;44.756;19.218;2024-02-23T07:57:56;99552.31;;;23.56;27.79
84578;BME280;74803;44.756;19.218;2024-02-23T08:00:26;99553.81;;;24.33;26.74
84578;BME280;74803;44.756;19.218;2024-02-23T08:02:52;99557.03;;;24.15;26.88
84578;BME280;74803;44.756;19.218;2024-02-23T08:05:23;99552.75;;;24.34;26.54
84578;BME280;74803;44.756;19.218;2024-02-23T08:07:49;99553.50;;;24.44;26.32
84578;BME280;74803;44.756;19.218;2024-02-23T08:10:14;99556.69;;;24.46;26.52
84578;BME280;74803;44.756;19.218;2024-02-23T08:12:40;99542.91;;;24.44;26.56
84578;BME280;74803;44.756;19.218;2024-02-23T08:15:07;99551.19;;;24.18;27.11
84578;BME280;74803;44.756;19.218;2024-02-23T08:17:33;99551.09;;;24.53;26.34
84578;BME280;74803;44.756;19.218;2024-02-23T08:20:02;99547.09;;;24.61;25.92
84578;BME280;74803;44.756;19.218;2024-02-23T08:22:27;99534.84;;;25.14;25.61
84578;BME280;74803;44.756;19.218;2024-02-23T08:24:53;99535.53;;;24.85;25.66
84578;BME280;74803;44.756;19.218;2024-02-23T08:27:18;99533.13;;;24.94;25.64
84578;BME280;74803;44.756;19.218;2024-02-23T08:29:45;99530.41;;;24.45;26.31
84578;BME280;74803;44.756;19.218;2024-02-23T08:32:11;99526.22;;;25.27;25.25
84578;BME280;74803;44.756;19.218;2024-02-23T08:34:36;99527.63;;;25.58;25.08
84578;BME280;74803;44.756;19.218;2024-02-23T08:37:07;99530.75;;;25.65;25.07
84578;BME280;74803;44.756;19.218;2024-02-23T08:39:38;99527.66;;;24.65;26.21
84578;BME280;74803;44.756;19.218;2024-02-23T08:42:04;99521.41;;;25.68;24.49
84578;BME280;74803;44.756;19.218;2024-02-23T08:44:33;99525.00;;;26.06;24.11
84578;BME280;74803;44.756;19.218;2024-02-23T08:47:03;99521.56;;;26.53;23.30
84578;BME280;74803;44.756;19.218;2024-02-23T08:49:29;99519.72;;;26.72;22.77
84578;BME280;74803;44.756;19.218;2024-02-23T08:51:57;99530.72;;;26.84;22.74
84578;BME280;74803;44.756;19.218;2024-02-23T08:54:25;99525.53;;;26.32;23.18
84578;BME280;74803;44.756;19.218;2024-02-23T08:56:51;99521.84;;;26.70;22.17
84578;BME280;74803;44.756;19.218;2024-02-23T08:59:16;99523.69;;;27.12;22.02
84578;BME280;74803;44.756;19.218;2024-02-23T09:01:42;99529.97;;;27.02;21.84
84578;BME280;74803;44.756;19.218;2024-02-23T09:04:11;99530.88;;;26.32;22.58
84578;BME280;74803;44.756;19.218;2024-02-23T09:06:36;99527.00;;;27.04;21.77
84578;BME280;74803;44.756;19.218;2024-02-23T09:09:02;99531.44;;;26.71;21.95
84578;BME280;74803;44.756;19.218;2024-02-23T09:11:27;99540.38;;;26.14;22.33
84578;BME280;74803;44.756;19.218;2024-02-23T09:13:54;99535.03;;;25.90;22.65
84578;BME280;74803;44.756;19.218;2024-02-23T09:16:19;99538.91;;;26.50;22.12
84578;BME280;74803;44.756;19.218;2024-02-23T09:18:47;99545.16;;;25.88;23.33
84578;BME280;74803;44.756;19.218;2024-02-23T09:21:12;99544.69;;;26.57;22.18
84578;BME280;74803;44.756;19.218;2024-02-23T09:23:38;99535.59;;;26.11;22.44
84578;BME280;74803;44.756;19.218;2024-02-23T09:26:08;99538.44;;;26.25;22.34
84578;BME280;74803;44.756;19.218;2024-02-23T09:28:35;99530.72;;;26.65;22.16
84578;BME280;74803;44.756;19.218;2024-02-23T09:31:08;99537.28;;;25.44;24.08
84578;BME280;74803;44.756;19.218;2024-02-23T09:34:20;99537.63;;;26.85;21.93
84578;BME280;74803;44.756;19.218;2024-02-23T09:37:03;99531.78;;;26.64;23.13
84578;BME280;74803;44.756;19.218;2024-02-23T09:39:30;99534.09;;;26.52;22.05
84578;BME280;74803;44.756;19.218;2024-02-23T09:41:56;99540.69;;;26.55;22.02
84578;BME280;74803;44.756;19.218;2024-02-23T09:44:31;99541.56;;;26.93;21.54
84578;BME280;74803;44.756;19.218;2024-02-23T09:46:58;99539.75;;;27.07;21.50
84578;BME280;74803;44.756;19.218;2024-02-23T09:49:25;99528.75;;;26.52;21.83
84578;BME280;74803;44.756;19.218;2024-02-23T09:51:50;99530.94;;;26.27;21.13
84578;BME280;74803;44.756;19.218;2024-02-23T09:54:16;99530.28;;;26.58;21.03
84578;BME280;74803;44.756;19.218;2024-02-23T09:56:42;99529.34;;;27.43;20.57
84578;BME280;74803;44.756;19.218;2024-02-23T09:59:08;99535.59;;;27.33;20.18
84578;BME280;74803;44.756;19.218;2024-02-23T10:01:34;99523.97;;;27.11;20.46
84578;BME280;74803;44.756;19.218;2024-02-23T10:04:01;99527.78;;;27.23;20.70
84578;BME280;74803;44.756;19.218;2024-02-23T10:06:29;99525.69;;;26.64;21.16
84578;BME280;74803;44.756;19.218;2024-02-23T10:08:55;99520.06;;;26.65;21.07
84578;BME280;74803;44.756;19.218;2024-02-23T10:11:22;99519.28;;;26.84;20.93
84578;BME280;74803;44.756;19.218;2024-02-23T10:13:48;99521.25;;;26.54;21.11
84578;BME280;74803;44.756;19.218;2024-02-23T10:16:15;99522.22;;;26.82;21.03
84578;BME280;74803;44.756;19.218;2024-02-23T10:18:40;99524.16;;;26.58;21.23
84578;BME280;74803;44.756;19.218;2024-02-23T10:21:26;99518.84;;;27.65;20.62
84578;BME280;74803;44.756;19.218;2024-02-23T10:23:51;99527.56;;;27.71;20.88
84578;BME280;74803;44.756;19.218;2024-02-23T10:26:17;99535.72;;;28.34;19.62
84578;BME280;74803;44.756;19.218;2024-02-23T10:28:44;99517.41;;;27.86;20.32
84578;BME280;74803;44.756;19.218;2024-02-23T10:31:11;99514.56;;;28.24;20.03
84578;BME280;74803;44.756;19.218;2024-02-23T10:33:36;99502.13;;;29.05;18.76
84578;BME280;74803;44.756;19.218;2024-02-23T10:36:04;99510.16;;;30.20;18.30
84578;BME280;74803;44.756;19.218;2024-02-23T10:38:32;99513.03;;;29.31;19.47
84578;BME280;74803;44.756;19.218;2024-02-23T10:40:57;99505.50;;;29.33;19.13
84578;BME280;74803;44.756;19.218;2024-02-23T10:43:35;99495.81;;;29.45;18.81
84578;BME280;74803;44.756;19.218;2024-02-23T10:46:01;99505.72;;;29.00;19.41
84578;BME280;74803;44.756;19.218;2024-02-23T10:48:30;99492.44;;;29.62;18.58
84578;BME280;74803;44.756;19.218;2024-02-23T10:51:08;99489.91;;;28.90;18.44
84578;BME280;74803;44.756;19.218;2024-02-23T10:53:46;99492.47;;;29.17;18.88
84578;BME280;74803;44.756;19.218;2024-02-23T10:56:14;99482.03;;;29.60;18.09
84578;BME280;74803;44.756;19.218;2024-02-23T10:58:40;99487.94;;;28.05;19.77
84578;BME280;74803;44.756;19.218;2024-02-23T11:01:07;99493.81;;;27.29;20.19
84578;BME280;74803;44.756;19.218;2024-02-23T11:03:35;99477.47;;;28.36;19.79
84578;BME280;74803;44.756;19.218;2024-02-23T11:06:06;99480.59;;;28.88;19.86
84578;BME280;74803;44.756;19.218;2024-02-23T11:08:32;99483.69;;;28.04;20.78
84578;BME280;74803;44.756;19.218;2024-02-23T11:10:58;99470.78;;;28.47;20.14
84578;BME280;74803;44.756;19.218;2024-02-23T11:13:37;99475.81;;;28.76;20.01
84578;BME280;74803;44.756;19.218;2024-02-23T11:16:03;99495.00;;;28.64;20.04
84578;BME280;74803;44.756;19.218;2024-02-23T11:18:29;99478.53;;;28.35;20.19
84578;BME280;74803;44.756;19.218;2024-02-23T11:20:55;99491.19;;;28.93;19.35
84578;BME280;74803;44.756;19.218;2024-02-23T11:23:23;99484.56;;;27.86;21.10
84578;BME280;74803;44.756;19.218;2024-02-23T11:26:04;99473.41;;;26.68;22.19
84578;BME280;74803;44.756;19.218;2024-02-23T11:28:33;99475.50;;;25.23;23.38
84578;BME280;74803;44.756;19.218;2024-02-23T11:30:58;99479.63;;;25.40;23.65
84578;BME280;74803;44.756;19.218;2024-02-23T11:33:37;99480.72;;;26.15;22.96
84578;BME280;74803;44.756;19.218;2024-02-23T11:36:09;99486.41;;;25.85;23.21
84578;BME280;74803;44.756;19.218;2024-02-23T11:38:36;99484.94;;;26.63;22.47
84578;BME280;74803;44.756;19.218;2024-02-23T11:41:07;99501.69;;;25.98;22.54
84578;BME280;74803;44.756;19.218;2024-02-23T11:43:34;99502.66;;;25.20;23.73
84578;BME280;74803;44.756;19.218;2024-02-23T11:46:08;99492.38;;;26.24;23.11
84578;BME280;74803;44.756;19.218;2024-02-23T11:48:33;99512.81;;;26.29;23.06
84578;BME280;74803;44.756;19.218;2024-02-23T11:50:59;99502.94;;;25.48;24.62
84578;BME280;74803;44.756;19.218;2024-02-23T11:53:26;99500.69;;;24.92;25.44
84578;BME280;74803;44.756;19.218;2024-02-23T11:55:52;99512.56;;;25.10;26.31
84578;BME280;74803;44.756;19.218;2024-02-23T11:58:18;99509.94;;;25.05;27.10
84578;BME280;74803;44.756;19.218;2024-02-23T12:00:47;99508.19;;;24.80;28.39
84578;BME280;74803;44.756;19.218;2024-02-23T12:03:13;99514.81;;;24.23;29.81
84578;BME280;74803;44.756;19.218;2024-02-23T12:05:39;99511.50;;;23.62;31.02
84578;BME280;74803;44.756;19.218;2024-02-23T12:08:05;99520.75;;;23.80;32.54
84578;BME280;74803;44.756;19.218;2024-02-23T12:10:30;99509.38;;;23.29;32.53
84578;BME280;74803;44.756;19.218;2024-02-23T12:12:57;99503.25;;;23.13;34.42
84578;BME280;74803;44.756;19.218;2024-02-23T12:15:30;99496.88;;;23.39;36.78
84578;BME280;74803;44.756;19.218;2024-02-23T12:17:57;99496.91;;;21.47;61.61
84578;BME280;74803;44.756;19.218;2024-02-23T12:20:23;99501.59;;;20.82;66.60
84578;BME280;74803;44.756;19.218;2024-02-23T12:22:50;99502.25;;;20.45;68.93
84578;BME280;74803;44.756;19.218;2024-02-23T12:25:15;99497.88;;;20.56;75.76
84578;BME280;74803;44.756;19.218;2024-02-23T12:27:43;99503.34;;;20.49;72.37
84578;BME280;74803;44.756;19.218;2024-02-23T12:30:42;99493.94;;;21.12;77.83
84578;BME280;74803;44.756;19.218;2024-02-23T12:33:09;99493.81;;;20.70;70.19
84578;BME280;74803;44.756;19.218;2024-02-23T12:35:36;99489.69;;;21.06;69.30
84578;BME280;74803;44.756;19.218;2024-02-23T12:38:01;99484.34;;;21.28;69.69
84578;BME280;74803;44.756;19.218;2024-02-23T12:40:36;99482.97;;;20.93;63.45
84578;BME280;74803;44.756;19.218;2024-02-23T12:43:08;99473.28;;;20.50;58.72
84578;BME280;74803;44.756;19.218;2024-02-23T12:45:35;99467.97;;;20.72;62.41
84578;BME280;74803;44.756;19.218;2024-02-23T12:48:07;99460.44;;;20.59;59.73
84578;BME280;74803;44.756;19.218;2024-02-23T12:50:44;99461.22;;;20.81;59.31
84578;BME280;74803;44.756;19.218;2024-02-23T12:53:46;99450.97;;;20.36;60.11
84578;BME280;74803;44.756;19.218;2024-02-23T12:56:05;99445.06;;;20.51;61.39
84578;BME280;74803;44.756;19.218;2024-02-23T12:58:33;99446.81;;;20.67;66.43
84578;BME280;74803;44.756;19.218;2024-02-23T13:01:02;99445.94;;;20.88;65.02
84578;BME280;74803;44.756;19.218;2024-02-23T13:03:30;99445.31;;;20.76;60.58
84578;BME280;74803;44.756;19.218;2024-02-23T13:05:56;99440.66;;;20.88;66.45
84578;BME280;74803;44.756;19.218;2024-02-23T13:08:22;99439.19;;;20.71;64.68
84578;BME280;74803;44.756;19.218;2024-02-23T13:10:48;99432.16;;;20.54;58.92
84578;BME280;74803;44.756;19.218;2024-02-23T13:13:13;99429.75;;;20.53;59.92